createdAt,value
2022-12-02T00:02:34.939Z,4.50
2022-12-02T00:05:33.366Z,4.50
2022-12-02T00:08:15.635Z,4.50
2022-12-02T00:10:46.075Z,4.50
2022-12-02T00:13:27.565Z,4.50
2022-12-02T00:16:03.557Z,4.50
2022-12-02T00:18:32.721Z,4.50
2022-12-02T00:21:01.787Z,4.50
2022-12-02T00:23:29.997Z,4.50
2022-12-02T00:26:01.086Z,4.50
2022-12-02T00:28:32.229Z,4.50
2022-12-02T00:31:00.300Z,4.60
2022-12-02T00:33:29.298Z,4.60
2022-12-02T00:35:57.429Z,4.60
2022-12-02T00:38:25.449Z,4.50
2022-12-02T00:40:54.322Z,4.50
2022-12-02T00:43:40.779Z,4.50
2022-12-02T00:46:27.527Z,4.40
2022-12-02T00:48:56.907Z,4.50
2022-12-02T00:51:24.981Z,4.50
2022-12-02T00:53:54.746Z,4.50
2022-12-02T00:56:25.561Z,4.50
2022-12-02T00:58:53.835Z,4.50
2022-12-02T01:01:22.269Z,4.50
2022-12-02T01:03:50.788Z,4.50
2022-12-02T01:06:19.745Z,4.40
2022-12-02T01:08:52.046Z,4.40
2022-12-02T01:11:27.967Z,4.40
2022-12-02T01:13:55.976Z,4.40
2022-12-02T01:16:24.114Z,4.30
2022-12-02T01:18:52.324Z,4.30
2022-12-02T01:21:20.439Z,4.30
2022-12-02T01:23:48.757Z,4.30
2022-12-02T01:26:16.838Z,4.30
2022-12-02T01:28:45.040Z,4.40
2022-12-02T01:31:13.273Z,4.40
2022-12-02T01:33:41.364Z,4.40
2022-12-02T01:36:09.811Z,4.40
2022-12-02T01:38:38.797Z,4.40
2022-12-02T01:41:08.252Z,4.40
2022-12-02T01:43:37.105Z,4.40
2022-12-02T01:46:05.591Z,4.40
2022-12-02T01:48:35.706Z,4.30
2022-12-02T01:51:05.866Z,4.30
2022-12-02T01:53:35.052Z,4.30
2022-12-02T01:56:03.722Z,4.20
2022-12-02T01:58:33.728Z,4.30
2022-12-02T02:01:01.882Z,4.20
2022-12-02T02:03:29.991Z,4.20
2022-12-02T02:05:58.155Z,4.20
2022-12-02T02:08:26.317Z,4.20
2022-12-02T02:10:54.405Z,4.20
2022-12-02T02:13:22.400Z,4.20
2022-12-02T02:15:50.511Z,4.20
2022-12-02T02:18:18.760Z,4.20
2022-12-02T02:20:47.004Z,4.20
2022-12-02T02:23:22.104Z,4.20
2022-12-02T02:25:54.748Z,4.10
2022-12-02T02:28:30.743Z,4.10
2022-12-02T02:31:02.222Z,4.10
2022-12-02T02:33:37.849Z,4.20
2022-12-02T02:36:07.208Z,4.10
2022-12-02T02:38:37.002Z,4.10
2022-12-02T02:41:06.586Z,4.10
2022-12-02T02:43:36.646Z,4.10
2022-12-02T02:46:05.313Z,4.10
2022-12-02T02:48:38.623Z,4.00
2022-12-02T02:51:08.451Z,3.90
2022-12-02T02:53:37.383Z,4.00
2022-12-02T02:56:07.232Z,3.90
2022-12-02T02:58:37.465Z,3.90
2022-12-02T03:01:15.606Z,3.90
2022-12-02T03:03:53.653Z,3.90
2022-12-02T03:06:25.081Z,3.90
2022-12-02T03:08:58.067Z,3.90
2022-12-02T03:11:30.609Z,3.90
2022-12-02T03:13:59.105Z,3.90
2022-12-02T03:16:27.707Z,3.80
2022-12-02T03:18:57.053Z,3.80
2022-12-02T03:21:27.268Z,3.80
2022-12-02T03:23:59.107Z,3.80
2022-12-02T03:26:30.296Z,3.80
2022-12-02T03:28:59.198Z,3.70
2022-12-02T03:31:28.939Z,3.70
2022-12-02T03:33:58.188Z,3.60
2022-12-02T03:36:26.829Z,3.60
2022-12-02T03:38:55.079Z,3.60
2022-12-02T03:41:25.046Z,3.60
2022-12-02T03:43:53.414Z,3.50
2022-12-02T03:46:21.659Z,3.50
2022-12-02T03:48:50.689Z,3.40
2022-12-02T03:51:19.209Z,3.50
2022-12-02T03:53:47.734Z,3.40
2022-12-02T03:56:15.955Z,3.40
2022-12-02T03:58:52.291Z,3.50
2022-12-02T04:01:22.298Z,3.50
2022-12-02T04:03:50.542Z,3.40
2022-12-02T04:06:18.635Z,3.50
2022-12-02T04:08:47.044Z,3.50
2022-12-02T04:11:15.106Z,3.50
2022-12-02T04:13:43.225Z,3.50
2022-12-02T04:16:11.373Z,3.50
2022-12-02T04:18:42.025Z,3.40
2022-12-02T04:21:10.207Z,3.40
2022-12-02T04:23:41.647Z,3.30
2022-12-02T04:26:13.137Z,3.30
2022-12-02T04:28:41.339Z,3.30
2022-12-02T04:31:09.448Z,3.30
2022-12-02T04:33:37.642Z,3.30
2022-12-02T04:36:06.111Z,3.30
2022-12-02T04:38:34.157Z,3.30
2022-12-02T04:41:02.158Z,3.30
2022-12-02T04:43:30.216Z,3.30
2022-12-02T04:45:58.247Z,3.30
2022-12-02T04:48:26.357Z,3.30
2022-12-02T04:50:54.377Z,3.30
2022-12-02T04:53:22.365Z,3.20
2022-12-02T04:55:50.406Z,3.30
2022-12-02T04:58:19.784Z,3.30
2022-12-02T05:00:47.859Z,3.20
2022-12-02T05:03:15.959Z,3.20
2022-12-02T05:05:44.001Z,3.20
2022-12-02T05:08:12.159Z,3.20
2022-12-02T05:10:40.347Z,3.20
2022-12-02T05:13:08.465Z,3.20
2022-12-02T05:15:36.520Z,3.20
2022-12-02T05:18:04.607Z,3.20
2022-12-02T05:20:32.645Z,3.20
2022-12-02T05:23:00.729Z,3.10
2022-12-02T05:25:28.738Z,3.20
2022-12-02T05:27:57.124Z,3.20
2022-12-02T05:30:25.417Z,3.10
2022-12-02T05:32:53.801Z,3.10
2022-12-02T05:35:21.840Z,3.10
2022-12-02T05:37:49.824Z,3.10
2022-12-02T05:40:17.874Z,3.10
2022-12-02T05:42:46.075Z,3.10
2022-12-02T05:45:21.294Z,3.10
2022-12-02T05:47:52.531Z,3.10
2022-12-02T05:50:21.007Z,3.10
2022-12-02T05:52:56.442Z,3.10
2022-12-02T05:55:24.509Z,3.10
2022-12-02T05:57:52.574Z,3.10
2022-12-02T06:00:23.418Z,3.10
2022-12-02T06:02:58.025Z,3.10
2022-12-02T06:05:27.786Z,3.10
2022-12-02T06:08:11.803Z,3.10
2022-12-02T06:10:40.235Z,3.10
2022-12-02T06:13:29.909Z,3.10
2022-12-02T06:16:00.202Z,3.10
2022-12-02T06:18:35.167Z,3.00
2022-12-02T06:21:14.570Z,3.00
2022-12-02T06:23:47.353Z,3.10
2022-12-02T06:26:17.695Z,3.00
2022-12-02T06:28:48.672Z,3.00
2022-12-02T06:31:24.790Z,3.00
2022-12-02T06:33:54.955Z,3.00
2022-12-02T06:36:26.682Z,3.00
2022-12-02T06:39:03.821Z,3.00
2022-12-02T06:41:34.248Z,3.00
2022-12-02T06:44:32.310Z,3.00
2022-12-02T06:47:11.226Z,3.00
2022-12-02T06:52:50.618Z,3.00
2022-12-02T06:55:36.356Z,3.00
2022-12-02T06:58:24.094Z,3.00
2022-12-02T07:00:52.149Z,3.10
2022-12-02T07:03:32.846Z,3.00
2022-12-02T07:06:14.538Z,3.00
2022-12-02T07:08:42.654Z,3.00
2022-12-02T07:11:50.070Z,3.00
2022-12-02T07:14:53.810Z,3.00
2022-12-02T07:17:27.067Z,3.00
2022-12-02T07:20:32.371Z,3.00
2022-12-02T07:23:25.776Z,3.00
2022-12-02T07:25:58.907Z,3.00
2022-12-02T07:28:44.323Z,3.00
2022-12-02T07:31:21.132Z,3.00
2022-12-02T07:33:49.954Z,3.00
2022-12-02T07:36:22.001Z,3.00
2022-12-02T07:39:07.968Z,3.00
2022-12-02T07:41:40.162Z,3.00
2022-12-02T07:44:08.212Z,3.00
2022-12-02T07:46:36.322Z,3.00
2022-12-02T07:49:04.347Z,3.00
2022-12-02T07:51:32.425Z,3.00
2022-12-02T07:54:00.568Z,3.00
2022-12-02T07:56:28.540Z,3.10
2022-12-02T07:59:11.977Z,3.10
2022-12-02T08:04:31.558Z,3.10
2022-12-02T08:07:02.299Z,3.20
2022-12-02T08:09:30.402Z,3.20
2022-12-02T08:11:58.348Z,3.20
2022-12-02T08:14:26.367Z,3.20
2022-12-02T08:16:54.424Z,3.20
2022-12-02T08:19:22.515Z,3.20
2022-12-02T08:21:50.540Z,3.20
2022-12-02T08:24:18.525Z,3.10
2022-12-02T08:26:46.431Z,3.20
2022-12-02T08:29:14.427Z,3.20
2022-12-02T08:31:42.502Z,3.20
2022-12-02T08:34:10.503Z,3.20
2022-12-02T08:36:38.512Z,3.20
2022-12-02T08:39:09.266Z,3.20
2022-12-02T08:41:38.785Z,3.10
2022-12-02T08:44:07.510Z,3.20
2022-12-02T08:46:37.765Z,3.10
2022-12-02T08:49:07.406Z,3.20
2022-12-02T08:51:36.597Z,3.20
2022-12-02T08:54:04.784Z,3.20
2022-12-02T08:56:32.834Z,3.20
2022-12-02T08:59:00.910Z,3.20
2022-12-02T09:01:29.323Z,3.20
2022-12-02T09:03:57.341Z,3.10
2022-12-02T09:06:26.007Z,3.20
2022-12-02T09:08:54.291Z,3.20
2022-12-02T09:11:22.521Z,3.30
2022-12-02T09:13:50.542Z,3.30
2022-12-02T09:16:18.569Z,3.40
2022-12-02T09:18:46.572Z,3.40
2022-12-02T09:21:14.496Z,3.50
2022-12-02T09:23:47.351Z,3.50
2022-12-02T09:26:18.456Z,3.50
2022-12-02T09:28:47.496Z,3.50
2022-12-02T09:31:15.986Z,3.50
2022-12-02T09:33:43.996Z,3.60
2022-12-02T09:36:12.063Z,3.60
2022-12-02T09:38:40.075Z,3.60
2022-12-02T09:41:08.249Z,3.60
2022-12-02T09:43:36.332Z,3.60
2022-12-02T09:46:06.475Z,3.60
2022-12-02T09:48:37.632Z,3.70
2022-12-02T09:51:10.524Z,3.70
2022-12-02T09:53:41.182Z,3.70
2022-12-02T09:56:19.205Z,3.80
2022-12-02T09:58:52.993Z,3.80
2022-12-02T10:01:21.120Z,3.80
2022-12-02T10:03:50.965Z,3.70
2022-12-02T10:06:26.761Z,3.70
2022-12-02T10:08:56.977Z,3.70
2022-12-02T10:11:33.682Z,3.70
2022-12-02T10:14:03.367Z,3.60
2022-12-02T10:16:31.359Z,3.60
2022-12-02T10:19:03.082Z,3.50
2022-12-02T10:21:31.046Z,3.60
2022-12-02T10:24:05.151Z,3.60
2022-12-02T10:26:53.181Z,3.60
2022-12-02T10:29:32.425Z,3.60
2022-12-02T10:32:06.724Z,3.60
2022-12-02T10:34:36.352Z,3.60
2022-12-02T10:37:28.750Z,3.60
2022-12-02T10:40:15.958Z,3.60
2022-12-02T10:42:44.979Z,3.60
2022-12-02T10:45:25.003Z,3.60
2022-12-02T10:48:13.742Z,3.60
2022-12-02T10:50:41.760Z,3.60
2022-12-02T10:53:18.695Z,3.60
2022-12-02T10:55:47.941Z,3.60
2022-12-02T10:58:24.399Z,3.60
2022-12-02T11:00:56.674Z,3.70
2022-12-02T11:03:27.861Z,3.60
2022-12-02T11:05:55.929Z,3.60
2022-12-02T11:08:27.137Z,3.60
2022-12-02T11:11:14.223Z,3.50
2022-12-02T11:13:48.334Z,3.60
2022-12-02T11:16:28.982Z,3.60
2022-12-02T11:19:18.808Z,3.60
2022-12-02T11:21:48.278Z,3.60
2022-12-02T11:24:24.984Z,3.60
2022-12-02T11:27:05.409Z,3.60
2022-12-02T11:29:34.285Z,3.60
2022-12-02T11:32:04.147Z,3.60
2022-12-02T11:35:15.209Z,3.60
2022-12-02T11:37:40.750Z,3.60
2022-12-02T11:40:15.979Z,3.60
2022-12-02T11:42:45.894Z,3.70
2022-12-02T11:45:18.463Z,3.60
2022-12-02T11:47:56.054Z,3.60
2022-12-02T11:50:26.433Z,3.70
2022-12-02T11:52:56.994Z,3.60
2022-12-02T11:55:34.289Z,3.70
2022-12-02T11:58:04.002Z,3.60
2022-12-02T12:00:38.511Z,3.60
2022-12-02T12:03:16.826Z,3.40
2022-12-02T12:06:06.499Z,3.50
2022-12-02T12:08:34.621Z,3.60
2022-12-02T12:11:20.555Z,3.60
2022-12-02T12:14:12.315Z,3.70
2022-12-02T12:16:43.532Z,3.60
2022-12-02T12:19:14.270Z,3.50
2022-12-02T12:21:49.780Z,3.50
2022-12-02T12:24:24.583Z,3.50
2022-12-02T12:27:11.722Z,3.50
2022-12-02T12:29:41.560Z,3.50
2022-12-02T12:32:13.633Z,3.50
2022-12-02T12:34:41.770Z,3.40
2022-12-02T12:37:12.809Z,3.50
2022-12-02T12:39:43.555Z,3.50
2022-12-02T12:42:11.492Z,3.60
2022-12-02T12:44:39.400Z,3.60
2022-12-02T12:47:08.168Z,3.60
2022-12-02T12:49:36.439Z,3.60
2022-12-02T12:52:04.682Z,3.60
2022-12-02T12:54:32.937Z,3.50
2022-12-02T12:57:00.997Z,3.30
2022-12-02T12:59:29.074Z,3.30
2022-12-02T13:01:57.173Z,3.20
2022-12-02T13:04:25.213Z,3.10
2022-12-02T13:06:53.245Z,3.20
2022-12-02T13:09:25.292Z,3.20
2022-12-02T13:11:53.306Z,3.30
2022-12-02T13:14:23.505Z,3.30
2022-12-02T13:16:51.515Z,3.20
2022-12-02T13:19:20.422Z,3.30
2022-12-02T13:21:50.725Z,3.30
2022-12-02T13:24:18.696Z,3.30
2022-12-02T13:26:46.850Z,3.40
2022-12-02T13:29:15.196Z,3.40
2022-12-02T13:31:43.258Z,3.40
2022-12-02T13:34:11.343Z,3.40
2022-12-02T13:36:39.292Z,3.40
2022-12-02T13:39:12.398Z,3.40
2022-12-02T13:41:40.462Z,3.30
2022-12-02T13:44:08.375Z,3.30
2022-12-02T13:46:36.506Z,3.30
2022-12-02T13:49:04.805Z,3.30
2022-12-02T13:51:33.016Z,3.30
2022-12-02T13:54:01.178Z,3.30
2022-12-02T13:56:29.384Z,3.30
2022-12-02T13:58:57.535Z,3.20
2022-12-02T14:01:26.294Z,3.20
2022-12-02T14:03:54.572Z,3.10
2022-12-02T14:06:22.919Z,3.10
2022-12-02T14:08:50.962Z,3.10
2022-12-02T14:11:21.601Z,3.00
2022-12-02T14:13:51.444Z,2.90
2022-12-02T14:16:19.803Z,2.90
2022-12-02T14:18:51.263Z,2.90
2022-12-02T14:21:23.790Z,2.90
2022-12-02T14:23:51.960Z,2.90
2022-12-02T14:26:20.446Z,2.90
2022-12-02T14:28:48.868Z,2.80
2022-12-02T14:31:25.451Z,2.80
2022-12-02T14:34:13.114Z,2.80
2022-12-02T14:36:43.401Z,2.80
2022-12-02T14:39:12.145Z,2.80
2022-12-02T14:41:40.807Z,2.70
2022-12-02T14:44:09.391Z,2.70
2022-12-02T14:46:38.410Z,2.80
2022-12-02T14:49:37.799Z,2.70
2022-12-02T14:51:57.928Z,2.70
2022-12-02T14:54:26.640Z,2.70
2022-12-02T14:56:57.488Z,2.70
2022-12-02T14:59:26.128Z,2.60
2022-12-02T15:01:54.353Z,2.50
2022-12-02T15:04:22.650Z,2.40
2022-12-02T15:06:50.973Z,2.40
2022-12-02T15:09:18.987Z,2.40
2022-12-02T15:11:49.409Z,2.40
2022-12-02T15:14:17.419Z,2.40
2022-12-02T15:16:45.451Z,2.40
2022-12-02T15:19:13.493Z,2.40
2022-12-02T15:21:41.463Z,2.30
2022-12-02T15:24:09.748Z,2.40
2022-12-02T15:26:37.757Z,2.50
2022-12-02T15:29:05.712Z,2.40
2022-12-02T15:31:33.798Z,2.30
2022-12-02T15:34:01.867Z,2.30
2022-12-02T15:36:29.799Z,2.30
2022-12-02T15:39:05.155Z,2.40
2022-12-02T15:41:33.147Z,2.50
2022-12-02T15:44:01.323Z,2.50
2022-12-02T15:46:31.060Z,2.60
2022-12-02T15:48:59.313Z,2.50
2022-12-02T15:51:27.698Z,2.60
2022-12-02T15:53:55.768Z,2.50
2022-12-02T15:56:23.757Z,2.50
2022-12-02T15:58:51.890Z,2.50
2022-12-02T16:01:20.000Z,2.60
2022-12-02T16:03:48.079Z,2.60
2022-12-02T16:06:16.184Z,2.50
2022-12-02T16:08:44.294Z,2.50
2022-12-02T16:11:13.105Z,2.40
2022-12-02T16:13:41.148Z,2.40
2022-12-02T16:16:09.475Z,2.40
2022-12-02T16:18:37.527Z,2.40
2022-12-02T16:21:05.580Z,2.50
2022-12-02T16:23:33.638Z,2.40
2022-12-02T16:26:01.620Z,2.40
2022-12-02T16:28:29.635Z,2.40
2022-12-02T16:30:57.585Z,2.40
2022-12-02T16:33:26.520Z,2.30
2022-12-02T16:35:54.559Z,2.30
2022-12-02T16:38:22.577Z,2.30
2022-12-02T16:40:50.464Z,2.30
2022-12-02T16:43:18.685Z,2.30
2022-12-02T16:45:46.894Z,2.30
2022-12-02T16:48:14.921Z,2.40
2022-12-02T16:50:42.839Z,2.40
2022-12-02T16:53:10.963Z,2.40
2022-12-02T16:55:39.366Z,2.40
2022-12-02T16:58:07.545Z,2.40
2022-12-02T17:00:35.552Z,2.40
2022-12-02T17:03:05.361Z,2.40
2022-12-02T17:05:33.388Z,2.50
2022-12-02T17:08:01.435Z,2.40
2022-12-02T17:10:29.524Z,2.40
2022-12-02T17:12:57.433Z,2.40
2022-12-02T17:15:25.420Z,2.40
2022-12-02T17:17:53.606Z,2.50
2022-12-02T17:20:21.566Z,2.30
2022-12-02T17:22:49.571Z,2.30
2022-12-02T17:25:17.602Z,2.40
2022-12-02T17:27:45.703Z,2.30
2022-12-02T17:30:14.134Z,2.20
2022-12-02T17:32:42.249Z,2.20
2022-12-02T17:35:10.618Z,2.20
2022-12-02T17:37:38.709Z,2.30
2022-12-02T17:40:07.814Z,2.20
2022-12-02T17:42:35.788Z,2.20
2022-12-02T17:45:03.816Z,2.20
2022-12-02T17:47:31.816Z,2.20
2022-12-02T17:49:59.883Z,2.20
2022-12-02T17:52:30.856Z,2.30
2022-12-02T17:55:08.574Z,2.30
2022-12-02T17:57:38.405Z,2.30
2022-12-02T18:00:07.137Z,2.30
2022-12-02T18:02:35.181Z,2.30
2022-12-02T18:05:03.705Z,2.30
2022-12-02T18:07:31.788Z,2.30
2022-12-02T18:09:59.838Z,2.30
2022-12-02T18:12:27.819Z,2.30
2022-12-02T18:14:55.810Z,2.30
2022-12-02T18:17:23.761Z,2.10
2022-12-02T18:19:51.736Z,2.10
2022-12-02T18:22:19.735Z,2.00
2022-12-02T18:24:47.702Z,2.10
2022-12-02T18:27:15.683Z,2.00
2022-12-02T18:29:44.803Z,2.00
2022-12-02T18:32:12.818Z,2.00
2022-12-02T18:34:40.851Z,2.10
2022-12-02T18:37:09.153Z,2.10
2022-12-02T18:39:37.095Z,2.20
2022-12-02T18:42:05.284Z,2.20
2022-12-02T18:44:33.239Z,2.20
2022-12-02T18:47:01.413Z,2.20
2022-12-02T18:49:29.519Z,2.20
2022-12-02T18:51:57.611Z,2.20
2022-12-02T18:54:25.775Z,2.10
2022-12-02T18:56:53.737Z,2.00
2022-12-02T18:59:21.757Z,1.90
2022-12-02T19:01:50.572Z,1.90
2022-12-02T19:04:18.645Z,2.00
2022-12-02T19:06:46.784Z,2.00
2022-12-02T19:09:14.974Z,2.10
2022-12-02T19:11:42.931Z,2.10
2022-12-02T19:14:10.885Z,2.10
2022-12-02T19:16:40.711Z,2.00
2022-12-02T19:19:08.838Z,2.00
2022-12-02T19:21:36.862Z,1.90
2022-12-02T19:24:05.870Z,1.90
2022-12-02T19:26:33.921Z,1.90
2022-12-02T19:29:01.903Z,1.90
2022-12-02T19:31:30.143Z,2.00
2022-12-02T19:33:58.190Z,2.00
2022-12-02T19:36:26.202Z,2.00
2022-12-02T19:38:54.324Z,2.00
2022-12-02T19:41:22.335Z,2.00
2022-12-02T19:43:50.333Z,2.00
2022-12-02T19:46:18.478Z,2.10
2022-12-02T19:48:46.448Z,2.00
2022-12-02T19:51:14.402Z,1.90
2022-12-02T19:53:42.378Z,1.90
2022-12-02T19:56:10.404Z,1.80
2022-12-02T19:58:41.682Z,1.80
2022-12-02T20:01:14.090Z,1.70
2022-12-02T20:03:42.502Z,1.70
2022-12-02T20:06:11.240Z,1.70
2022-12-02T20:08:39.226Z,1.70
2022-12-02T20:11:07.575Z,1.80
2022-12-02T20:13:35.935Z,1.80
2022-12-02T20:16:04.080Z,1.80
2022-12-02T20:18:32.126Z,1.80
2022-12-02T20:21:00.303Z,1.90
2022-12-02T20:23:31.576Z,1.90
2022-12-02T20:25:59.828Z,1.90
2022-12-02T20:28:27.876Z,1.90
2022-12-02T20:30:56.098Z,1.80
2022-12-02T20:33:24.129Z,1.90
2022-12-02T20:35:52.186Z,1.90
2022-12-02T20:38:20.285Z,1.90
2022-12-02T20:40:48.283Z,1.90
2022-12-02T20:43:16.248Z,1.90
2022-12-02T20:45:44.219Z,1.80
2022-12-02T20:48:12.214Z,1.80
2022-12-02T20:50:42.040Z,1.80
2022-12-02T20:53:09.992Z,1.80
2022-12-02T20:55:38.673Z,1.70
2022-12-02T20:58:07.128Z,1.80
2022-12-02T21:00:35.857Z,1.90
2022-12-02T21:03:04.740Z,1.90
2022-12-02T21:05:35.781Z,1.90
2022-12-02T21:08:04.184Z,1.80
2022-12-02T21:10:32.657Z,1.90
2022-12-02T21:13:01.277Z,1.90
2022-12-02T21:15:34.301Z,1.90
2022-12-02T21:18:03.284Z,2.00
2022-12-02T21:20:31.364Z,1.90
2022-12-02T21:23:00.975Z,2.00
2022-12-02T21:25:35.946Z,1.90
2022-12-02T21:28:07.493Z,1.90
2022-12-02T21:30:39.826Z,1.90
2022-12-02T21:33:08.118Z,2.00
2022-12-02T21:35:38.352Z,2.00
2022-12-02T21:38:07.025Z,1.90
2022-12-02T21:40:35.095Z,1.90
2022-12-02T21:43:03.196Z,1.90
2022-12-02T21:45:31.302Z,1.90
2022-12-02T21:47:59.348Z,1.90
2022-12-02T21:50:27.392Z,1.80
2022-12-02T21:52:55.607Z,1.90
2022-12-02T21:55:23.563Z,2.00
2022-12-02T21:57:51.559Z,2.00
2022-12-02T22:00:19.929Z,2.00
2022-12-02T22:02:47.909Z,2.00
2022-12-02T22:05:17.534Z,2.00
2022-12-02T22:07:47.076Z,2.00
2022-12-02T22:10:21.304Z,1.90
2022-12-02T22:12:49.941Z,1.90
2022-12-02T22:15:20.436Z,1.80
2022-12-02T22:17:48.668Z,1.80
2022-12-02T22:20:17.312Z,1.80
2022-12-02T22:22:45.468Z,1.90
2022-12-02T22:25:13.415Z,1.90
2022-12-02T22:27:41.457Z,1.90
2022-12-02T22:30:10.757Z,1.90
2022-12-02T22:32:38.804Z,2.00
2022-12-02T22:35:09.361Z,2.00
2022-12-02T22:37:37.358Z,1.90
2022-12-02T22:40:06.295Z,2.00
2022-12-02T22:42:34.303Z,2.00
2022-12-02T22:45:02.270Z,1.90
2022-12-02T22:47:30.251Z,1.90
2022-12-02T22:49:58.162Z,1.90
2022-12-02T22:52:26.109Z,1.90
2022-12-02T22:54:54.312Z,1.90
2022-12-02T22:57:23.056Z,2.00
2022-12-02T22:59:51.134Z,2.00
2022-12-02T23:02:19.310Z,2.00
2022-12-02T23:04:47.408Z,1.90
2022-12-02T23:07:22.683Z,1.90
2022-12-02T23:09:53.794Z,1.90
2022-12-02T23:12:21.743Z,1.90
2022-12-02T23:14:49.780Z,1.80
2022-12-02T23:17:17.896Z,1.80
2022-12-02T23:19:45.864Z,1.90
2022-12-02T23:22:13.913Z,1.90
2022-12-02T23:24:41.839Z,2.00
2022-12-02T23:27:09.837Z,2.00
2022-12-02T23:29:37.832Z,2.10
2022-12-02T23:32:05.982Z,2.10
2022-12-02T23:34:33.955Z,2.10
2022-12-02T23:37:01.884Z,2.10
2022-12-02T23:39:29.838Z,2.10
2022-12-02T23:41:57.909Z,2.10
2022-12-02T23:44:25.836Z,2.10
2022-12-02T23:46:53.802Z,2.00
2022-12-02T23:49:21.746Z,1.90
2022-12-02T23:51:49.749Z,1.90
2022-12-02T23:54:17.693Z,2.00
2022-12-02T23:56:45.633Z,2.10
2022-12-02T23:59:13.683Z,2.10
